sensor_id;sensor_type;location;lat;lon;timestamp;temperature;humidity
2042;DHT22;1026;51.460;7.252;2022-09-17T00:01:40;14.30;83.90
2042;DHT22;1026;51.460;7.252;2022-09-17T00:04:07;14.40;84.00
2042;DHT22;1026;51.460;7.252;2022-09-17T00:06:35;14.40;84.10
2042;DHT22;1026;51.460;7.252;2022-09-17T00:09:01;14.30;84.00
2042;DHT22;1026;51.460;7.252;2022-09-17T00:11:30;14.40;84.10
2042;DHT22;1026;51.460;7.252;2022-09-17T00:13:58;14.30;84.00
2042;DHT22;1026;51.460;7.252;2022-09-17T00:16:26;14.40;84.10
2042;DHT22;1026;51.460;7.252;2022-09-17T00:18:52;14.40;84.10
2042;DHT22;1026;51.460;7.252;2022-09-17T00:21:36;14.30;84.00
2042;DHT22;1026;51.460;7.252;2022-09-17T00:24:22;14.40;84.10
2042;DHT22;1026;51.460;7.252;2022-09-17T00:26:49;14.40;84.10
2042;DHT22;1026;51.460;7.252;2022-09-17T00:29:14;14.40;84.20
2042;DHT22;1026;51.460;7.252;2022-09-17T00:31:41;14.40;84.20
2042;DHT22;1026;51.460;7.252;2022-09-17T00:34:06;14.40;84.20
2042;DHT22;1026;51.460;7.252;2022-09-17T00:36:35;14.30;84.10
2042;DHT22;1026;51.460;7.252;2022-09-17T00:39:01;14.20;84.00
2042;DHT22;1026;51.460;7.252;2022-09-17T00:41:30;14.30;84.00
2042;DHT22;1026;51.460;7.252;2022-09-17T00:43:58;14.30;84.00
2042;DHT22;1026;51.460;7.252;2022-09-17T00:46:34;14.30;84.00
2042;DHT22;1026;51.460;7.252;2022-09-17T00:49:05;14.30;84.00
2042;DHT22;1026;51.460;7.252;2022-09-17T00:51:36;14.30;84.10
2042;DHT22;1026;51.460;7.252;2022-09-17T00:54:06;14.30;84.10
2042;DHT22;1026;51.460;7.252;2022-09-17T00:56:34;14.30;84.10
2042;DHT22;1026;51.460;7.252;2022-09-17T00:59:01;14.30;84.10
2042;DHT22;1026;51.460;7.252;2022-09-17T01:01:29;14.30;84.00
2042;DHT22;1026;51.460;7.252;2022-09-17T01:03:55;14.10;83.80
2042;DHT22;1026;51.460;7.252;2022-09-17T01:11:53;14.20;83.90
2042;DHT22;1026;51.460;7.252;2022-09-17T01:18:02;14.20;83.90
2042;DHT22;1026;51.460;7.252;2022-09-17T01:31:56;14.20;84.00
2042;DHT22;1026;51.460;7.252;2022-09-17T01:37:17;14.20;84.10
2042;DHT22;1026;51.460;7.252;2022-09-17T01:40:05;14.10;84.00
2042;DHT22;1026;51.460;7.252;2022-09-17T01:45:42;14.10;84.10
2042;DHT22;1026;51.460;7.252;2022-09-17T01:51:11;14.10;84.00
2042;DHT22;1026;51.460;7.252;2022-09-17T01:53:56;14.10;84.00
2042;DHT22;1026;51.460;7.252;2022-09-17T01:56:26;14.10;84.10
2042;DHT22;1026;51.460;7.252;2022-09-17T02:02:07;14.00;84.00
2042;DHT22;1026;51.460;7.252;2022-09-17T02:04:40;14.10;84.10
2042;DHT22;1026;51.460;7.252;2022-09-17T02:07:12;14.10;84.10
2042;DHT22;1026;51.460;7.252;2022-09-17T02:09:43;14.10;84.10
2042;DHT22;1026;51.460;7.252;2022-09-17T02:12:32;14.10;84.80
2042;DHT22;1026;51.460;7.252;2022-09-17T02:15:02;13.90;83.90
2042;DHT22;1026;51.460;7.252;2022-09-17T02:17:36;14.10;84.20
2042;DHT22;1026;51.460;7.252;2022-09-17T02:20:04;14.00;84.00
2042;DHT22;1026;51.460;7.252;2022-09-17T02:27:57;13.90;84.00
2042;DHT22;1026;51.460;7.252;2022-09-17T02:30:25;13.90;84.00
2042;DHT22;1026;51.460;7.252;2022-09-17T02:32:52;13.90;84.00
2042;DHT22;1026;51.460;7.252;2022-09-17T02:35:18;14.00;84.00
2042;DHT22;1026;51.460;7.252;2022-09-17T02:37:44;14.00;84.00
2042;DHT22;1026;51.460;7.252;2022-09-17T02:40:12;13.90;83.90
2042;DHT22;1026;51.460;7.252;2022-09-17T02:43:02;14.00;84.10
2042;DHT22;1026;51.460;7.252;2022-09-17T02:45:58;14.00;84.10
2042;DHT22;1026;51.460;7.252;2022-09-17T02:48:33;13.90;84.00
2042;DHT22;1026;51.460;7.252;2022-09-17T02:53:36;13.90;84.00
2042;DHT22;1026;51.460;7.252;2022-09-17T03:01:19;13.90;84.20
2042;DHT22;1026;51.460;7.252;2022-09-17T03:03:47;13.90;84.20
2042;DHT22;1026;51.460;7.252;2022-09-17T03:06:16;13.90;84.10
2042;DHT22;1026;51.460;7.252;2022-09-17T03:08:42;13.90;84.10
2042;DHT22;1026;51.460;7.252;2022-09-17T03:11:10;13.80;84.00
2042;DHT22;1026;51.460;7.252;2022-09-17T03:13:37;13.90;84.20
2042;DHT22;1026;51.460;7.252;2022-09-17T03:16:03;13.90;84.20
2042;DHT22;1026;51.460;7.252;2022-09-17T03:18:29;13.90;84.10
2042;DHT22;1026;51.460;7.252;2022-09-17T03:20:55;13.80;84.00
2042;DHT22;1026;51.460;7.252;2022-09-17T03:23:21;13.80;84.00
2042;DHT22;1026;51.460;7.252;2022-09-17T03:25:46;13.80;84.00
2042;DHT22;1026;51.460;7.252;2022-09-17T03:28:14;13.80;84.00
2042;DHT22;1026;51.460;7.252;2022-09-17T03:30:41;13.90;84.20
2042;DHT22;1026;51.460;7.252;2022-09-17T03:33:07;13.80;84.10
2042;DHT22;1026;51.460;7.252;2022-09-17T03:35:33;13.90;84.30
2042;DHT22;1026;51.460;7.252;2022-09-17T03:37:58;13.90;84.20
2042;DHT22;1026;51.460;7.252;2022-09-17T03:40:24;13.80;84.10
2042;DHT22;1026;51.460;7.252;2022-09-17T03:42:50;13.80;84.10
2042;DHT22;1026;51.460;7.252;2022-09-17T03:45:15;13.70;83.90
2042;DHT22;1026;51.460;7.252;2022-09-17T03:47:41;13.80;84.10
2042;DHT22;1026;51.460;7.252;2022-09-17T03:50:19;13.80;84.10
2042;DHT22;1026;51.460;7.252;2022-09-17T03:52:45;13.70;84.00
2042;DHT22;1026;51.460;7.252;2022-09-17T03:55:11;13.80;84.20
2042;DHT22;1026;51.460;7.252;2022-09-17T03:57:36;13.80;84.20
2042;DHT22;1026;51.460;7.252;2022-09-17T04:00:05;13.80;84.20
2042;DHT22;1026;51.460;7.252;2022-09-17T04:02:32;13.80;84.20
2042;DHT22;1026;51.460;7.252;2022-09-17T04:05:00;13.70;84.10
2042;DHT22;1026;51.460;7.252;2022-09-17T04:07:26;13.80;84.20
2042;DHT22;1026;51.460;7.252;2022-09-17T04:10:01;13.80;84.20
2042;DHT22;1026;51.460;7.252;2022-09-17T04:12:29;13.80;84.20
2042;DHT22;1026;51.460;7.252;2022-09-17T04:14:54;13.60;84.10
2042;DHT22;1026;51.460;7.252;2022-09-17T04:17:20;13.70;84.10
2042;DHT22;1026;51.460;7.252;2022-09-17T04:19:46;13.70;84.20
2042;DHT22;1026;51.460;7.252;2022-09-17T04:22:11;13.70;84.20
2042;DHT22;1026;51.460;7.252;2022-09-17T04:24:37;13.70;84.10
2042;DHT22;1026;51.460;7.252;2022-09-17T04:27:03;13.70;84.90
2042;DHT22;1026;51.460;7.252;2022-09-17T04:29:28;13.60;84.00
2042;DHT22;1026;51.460;7.252;2022-09-17T04:31:54;13.70;84.20
2042;DHT22;1026;51.460;7.252;2022-09-17T04:34:20;13.70;84.90
2042;DHT22;1026;51.460;7.252;2022-09-17T04:36:45;13.70;84.10
2042;DHT22;1026;51.460;7.252;2022-09-17T04:39:11;13.60;84.10
2042;DHT22;1026;51.460;7.252;2022-09-17T04:41:36;13.70;84.10
2042;DHT22;1026;51.460;7.252;2022-09-17T04:44:02;13.70;84.20
2042;DHT22;1026;51.460;7.252;2022-09-17T04:46:28;13.60;84.10
2042;DHT22;1026;51.460;7.252;2022-09-17T04:48:54;13.70;84.20
2042;DHT22;1026;51.460;7.252;2022-09-17T04:51:19;13.60;84.10
2042;DHT22;1026;51.460;7.252;2022-09-17T04:53:45;13.70;84.10
2042;DHT22;1026;51.460;7.252;2022-09-17T04:56:11;13.60;84.10
2042;DHT22;1026;51.460;7.252;2022-09-17T04:58:36;13.60;84.10
2042;DHT22;1026;51.460;7.252;2022-09-17T05:01:02;13.60;84.10
2042;DHT22;1026;51.460;7.252;2022-09-17T05:03:28;13.50;84.00
2042;DHT22;1026;51.460;7.252;2022-09-17T05:05:53;13.60;84.10
2042;DHT22;1026;51.460;7.252;2022-09-17T05:08:19;13.50;83.90
2042;DHT22;1026;51.460;7.252;2022-09-17T05:10:50;13.50;83.90
2042;DHT22;1026;51.460;7.252;2022-09-17T05:13:16;13.60;84.10
2042;DHT22;1026;51.460;7.252;2022-09-17T05:15:43;13.60;84.10
2042;DHT22;1026;51.460;7.252;2022-09-17T05:18:09;13.50;84.00
2042;DHT22;1026;51.460;7.252;2022-09-17T05:20:35;13.50;84.00
2042;DHT22;1026;51.460;7.252;2022-09-17T05:23:01;13.60;84.10
2042;DHT22;1026;51.460;7.252;2022-09-17T05:25:26;13.60;84.20
2042;DHT22;1026;51.460;7.252;2022-09-17T05:27:52;13.50;84.00
2042;DHT22;1026;51.460;7.252;2022-09-17T05:30:28;13.50;84.00
2042;DHT22;1026;51.460;7.252;2022-09-17T05:33:14;13.50;84.00
2042;DHT22;1026;51.460;7.252;2022-09-17T05:35:40;13.50;84.00
2042;DHT22;1026;51.460;7.252;2022-09-17T05:38:07;13.50;84.00
2042;DHT22;1026;51.460;7.252;2022-09-17T05:40:33;13.60;84.20
2042;DHT22;1026;51.460;7.252;2022-09-17T05:43:00;13.50;84.10
2042;DHT22;1026;51.460;7.252;2022-09-17T05:45:27;13.50;84.10
2042;DHT22;1026;51.460;7.252;2022-09-17T05:47:55;13.50;84.10
2042;DHT22;1026;51.460;7.252;2022-09-17T05:50:21;13.50;84.10
2042;DHT22;1026;51.460;7.252;2022-09-17T05:52:47;13.50;84.10
2042;DHT22;1026;51.460;7.252;2022-09-17T05:55:13;13.50;84.10
2042;DHT22;1026;51.460;7.252;2022-09-17T05:57:39;13.50;84.10
2042;DHT22;1026;51.460;7.252;2022-09-17T06:00:05;13.50;84.10
2042;DHT22;1026;51.460;7.252;2022-09-17T06:02:30;13.50;84.10
2042;DHT22;1026;51.460;7.252;2022-09-17T06:04:56;13.50;84.10
2042;DHT22;1026;51.460;7.252;2022-09-17T06:07:25;13.50;84.10
2042;DHT22;1026;51.460;7.252;2022-09-17T06:09:51;13.50;84.20
2042;DHT22;1026;51.460;7.252;2022-09-17T06:12:16;13.50;84.10
2042;DHT22;1026;51.460;7.252;2022-09-17T06:14:42;13.50;84.10
2042;DHT22;1026;51.460;7.252;2022-09-17T06:17:07;13.50;84.20
2042;DHT22;1026;51.460;7.252;2022-09-17T06:19:33;13.50;84.20
2042;DHT22;1026;51.460;7.252;2022-09-17T06:21:58;13.40;84.10
2042;DHT22;1026;51.460;7.252;2022-09-17T06:24:24;13.50;84.10
2042;DHT22;1026;51.460;7.252;2022-09-17T06:26:51;13.50;84.10
2042;DHT22;1026;51.460;7.252;2022-09-17T06:29:16;13.50;84.20
2042;DHT22;1026;51.460;7.252;2022-09-17T06:31:42;13.50;84.10
2042;DHT22;1026;51.460;7.252;2022-09-17T06:34:09;13.50;84.20
2042;DHT22;1026;51.460;7.252;2022-09-17T06:36:35;13.50;84.10
2042;DHT22;1026;51.460;7.252;2022-09-17T06:39:01;13.40;84.00
2042;DHT22;1026;51.460;7.252;2022-09-17T06:41:26;13.50;84.20
2042;DHT22;1026;51.460;7.252;2022-09-17T06:43:52;13.50;84.00
2042;DHT22;1026;51.460;7.252;2022-09-17T06:46:19;13.50;84.10
2042;DHT22;1026;51.460;7.252;2022-09-17T06:48:45;13.50;84.10
2042;DHT22;1026;51.460;7.252;2022-09-17T06:51:10;13.50;84.10
2042;DHT22;1026;51.460;7.252;2022-09-17T06:53:36;13.50;84.10
2042;DHT22;1026;51.460;7.252;2022-09-17T06:56:04;13.50;84.10
2042;DHT22;1026;51.460;7.252;2022-09-17T06:58:30;13.50;84.10
2042;DHT22;1026;51.460;7.252;2022-09-17T07:00:58;13.50;84.10
2042;DHT22;1026;51.460;7.252;2022-09-17T07:03:25;13.50;84.10
2042;DHT22;1026;51.460;7.252;2022-09-17T07:05:51;13.50;84.00
2042;DHT22;1026;51.460;7.252;2022-09-17T07:08:16;13.50;84.10
2042;DHT22;1026;51.460;7.252;2022-09-17T07:10:42;13.50;84.00
2042;DHT22;1026;51.460;7.252;2022-09-17T07:13:08;13.50;84.10
2042;DHT22;1026;51.460;7.252;2022-09-17T07:15:33;13.50;84.10
2042;DHT22;1026;51.460;7.252;2022-09-17T07:17:59;13.50;84.00
2042;DHT22;1026;51.460;7.252;2022-09-17T07:20:27;13.40;84.00
2042;DHT22;1026;51.460;7.252;2022-09-17T07:22:56;13.50;84.10
2042;DHT22;1026;51.460;7.252;2022-09-17T07:25:23;13.50;84.80
2042;DHT22;1026;51.460;7.252;2022-09-17T07:27:51;13.50;84.10
2042;DHT22;1026;51.460;7.252;2022-09-17T07:30:17;13.40;84.00
2042;DHT22;1026;51.460;7.252;2022-09-17T07:32:43;13.40;84.00
2042;DHT22;1026;51.460;7.252;2022-09-17T07:35:09;13.40;84.00
2042;DHT22;1026;51.460;7.252;2022-09-17T07:37:34;13.50;84.00
2042;DHT22;1026;51.460;7.252;2022-09-17T07:40:00;13.40;84.00
2042;DHT22;1026;51.460;7.252;2022-09-17T07:42:25;13.50;84.10
2042;DHT22;1026;51.460;7.252;2022-09-17T07:44:52;13.30;83.90
2042;DHT22;1026;51.460;7.252;2022-09-17T07:47:18;13.50;84.10
2042;DHT22;1026;51.460;7.252;2022-09-17T07:49:44;13.50;84.10
2042;DHT22;1026;51.460;7.252;2022-09-17T07:52:10;13.50;84.00
2042;DHT22;1026;51.460;7.252;2022-09-17T07:54:35;13.40;84.00
2042;DHT22;1026;51.460;7.252;2022-09-17T07:57:02;13.50;84.10
2042;DHT22;1026;51.460;7.252;2022-09-17T07:59:27;13.50;84.00
2042;DHT22;1026;51.460;7.252;2022-09-17T08:01:53;13.50;84.10
2042;DHT22;1026;51.460;7.252;2022-09-17T08:04:19;13.40;83.90
2042;DHT22;1026;51.460;7.252;2022-09-17T08:06:45;13.40;83.90
2042;DHT22;1026;51.460;7.252;2022-09-17T08:09:13;13.50;84.00
2042;DHT22;1026;51.460;7.252;2022-09-17T08:11:40;13.50;83.90
2042;DHT22;1026;51.460;7.252;2022-09-17T08:14:09;13.50;83.90
2042;DHT22;1026;51.460;7.252;2022-09-17T08:16:35;13.40;83.80
2042;DHT22;1026;51.460;7.252;2022-09-17T08:19:01;13.50;83.90
2042;DHT22;1026;51.460;7.252;2022-09-17T08:21:27;13.50;83.90
2042;DHT22;1026;51.460;7.252;2022-09-17T08:23:53;13.50;83.80
2042;DHT22;1026;51.460;7.252;2022-09-17T08:26:21;13.50;83.80
2042;DHT22;1026;51.460;7.252;2022-09-17T08:28:49;13.40;83.70
2042;DHT22;1026;51.460;7.252;2022-09-17T08:31:16;13.40;83.80
2042;DHT22;1026;51.460;7.252;2022-09-17T08:33:43;13.50;83.80
2042;DHT22;1026;51.460;7.252;2022-09-17T08:36:11;13.40;83.70
2042;DHT22;1026;51.460;7.252;2022-09-17T08:38:37;13.50;83.70
2042;DHT22;1026;51.460;7.252;2022-09-17T08:41:18;13.40;83.70
2042;DHT22;1026;51.460;7.252;2022-09-17T08:46:27;13.50;83.60
2042;DHT22;1026;51.460;7.252;2022-09-17T08:49:15;13.50;83.60
2042;DHT22;1026;51.460;7.252;2022-09-17T08:57:30;13.50;83.30
2042;DHT22;1026;51.460;7.252;2022-09-17T09:00:09;13.50;83.60
2042;DHT22;1026;51.460;7.252;2022-09-17T09:05:45;13.50;83.60
2042;DHT22;1026;51.460;7.252;2022-09-17T09:08:15;13.50;83.50
2042;DHT22;1026;51.460;7.252;2022-09-17T09:10:48;13.50;83.50
2042;DHT22;1026;51.460;7.252;2022-09-17T09:13:18;13.40;83.40
2042;DHT22;1026;51.460;7.252;2022-09-17T09:15:53;13.50;83.50
2042;DHT22;1026;51.460;7.252;2022-09-17T09:18:21;13.40;83.30
2042;DHT22;1026;51.460;7.252;2022-09-17T09:20:49;13.50;83.40
2042;DHT22;1026;51.460;7.252;2022-09-17T09:26:16;13.50;83.30
2042;DHT22;1026;51.460;7.252;2022-09-17T09:31:51;13.50;83.40
2042;DHT22;1026;51.460;7.252;2022-09-17T09:34:19;13.50;83.30
2042;DHT22;1026;51.460;7.252;2022-09-17T09:36:45;13.40;83.10
2042;DHT22;1026;51.460;7.252;2022-09-17T09:39:22;13.50;83.00
2042;DHT22;1026;51.460;7.252;2022-09-17T09:41:56;13.50;83.00
2042;DHT22;1026;51.460;7.252;2022-09-17T09:44:24;13.50;82.90
2042;DHT22;1026;51.460;7.252;2022-09-17T10:00:37;13.60;82.90
2042;DHT22;1026;51.460;7.252;2022-09-17T10:03:20;13.50;82.50
2042;DHT22;1026;51.460;7.252;2022-09-17T10:06:02;13.50;82.60
2042;DHT22;1026;51.460;7.252;2022-09-17T10:08:36;13.50;83.20
2042;DHT22;1026;51.460;7.252;2022-09-17T10:11:05;13.60;82.70
2042;DHT22;1026;51.460;7.252;2022-09-17T10:13:32;13.60;82.80
2042;DHT22;1026;51.460;7.252;2022-09-17T10:16:20;13.60;82.60
2042;DHT22;1026;51.460;7.252;2022-09-17T10:18:49;13.60;82.50
2042;DHT22;1026;51.460;7.252;2022-09-17T10:21:21;13.60;82.50
2042;DHT22;1026;51.460;7.252;2022-09-17T10:23:49;13.60;82.50
2042;DHT22;1026;51.460;7.252;2022-09-17T10:26:31;13.60;82.60
2042;DHT22;1026;51.460;7.252;2022-09-17T10:29:00;13.50;82.40
2042;DHT22;1026;51.460;7.252;2022-09-17T10:31:26;13.60;82.30
2042;DHT22;1026;51.460;7.252;2022-09-17T10:33:56;13.60;82.30
2042;DHT22;1026;51.460;7.252;2022-09-17T10:39:34;13.60;82.10
2042;DHT22;1026;51.460;7.252;2022-09-17T10:42:08;13.60;82.10
2042;DHT22;1026;51.460;7.252;2022-09-17T10:44:38;13.70;82.10
2042;DHT22;1026;51.460;7.252;2022-09-17T10:47:26;13.60;82.00
2042;DHT22;1026;51.460;7.252;2022-09-17T10:49:55;13.70;82.00
2042;DHT22;1026;51.460;7.252;2022-09-17T10:52:26;13.70;81.90
2042;DHT22;1026;51.460;7.252;2022-09-17T10:58:03;13.60;81.90
2042;DHT22;1026;51.460;7.252;2022-09-17T11:00:43;13.70;81.90
2042;DHT22;1026;51.460;7.252;2022-09-17T11:06:49;13.70;82.30
2042;DHT22;1026;51.460;7.252;2022-09-17T11:09:42;13.70;82.30
2042;DHT22;1026;51.460;7.252;2022-09-17T11:20:56;13.70;82.10
2042;DHT22;1026;51.460;7.252;2022-09-17T11:26:24;13.80;82.10
2042;DHT22;1026;51.460;7.252;2022-09-17T11:39:58;13.80;82.70
2042;DHT22;1026;51.460;7.252;2022-09-17T11:42:29;13.80;82.70
2042;DHT22;1026;51.460;7.252;2022-09-17T11:45:02;13.80;82.80
2042;DHT22;1026;51.460;7.252;2022-09-17T11:47:35;13.80;82.80
2042;DHT22;1026;51.460;7.252;2022-09-17T11:50:18;13.80;83.50
2042;DHT22;1026;51.460;7.252;2022-09-17T11:52:59;13.80;82.80
2042;DHT22;1026;51.460;7.252;2022-09-17T11:55:35;13.80;82.80
2042;DHT22;1026;51.460;7.252;2022-09-17T12:00:57;13.80;82.90
2042;DHT22;1026;51.460;7.252;2022-09-17T12:03:33;13.80;82.90
2042;DHT22;1026;51.460;7.252;2022-09-17T12:06:07;13.80;82.90
2042;DHT22;1026;51.460;7.252;2022-09-17T12:08:45;13.80;82.80
2042;DHT22;1026;51.460;7.252;2022-09-17T12:11:26;13.80;82.90
2042;DHT22;1026;51.460;7.252;2022-09-17T12:14:02;13.80;83.50
2042;DHT22;1026;51.460;7.252;2022-09-17T12:21:51;13.80;82.70
2042;DHT22;1026;51.460;7.252;2022-09-17T12:35:40;13.80;82.60
2042;DHT22;1026;51.460;7.252;2022-09-17T12:38:56;13.90;82.70
2042;DHT22;1026;51.460;7.252;2022-09-17T12:46:46;13.90;82.50
2042;DHT22;1026;51.460;7.252;2022-09-17T12:49:27;13.90;82.50
2042;DHT22;1026;51.460;7.252;2022-09-17T12:52:01;13.90;82.60
2042;DHT22;1026;51.460;7.252;2022-09-17T12:54:44;13.80;82.40
2042;DHT22;1026;51.460;7.252;2022-09-17T13:00:11;13.90;82.60
2042;DHT22;1026;51.460;7.252;2022-09-17T13:02:54;14.00;82.70
2042;DHT22;1026;51.460;7.252;2022-09-17T13:08:16;14.00;82.60
2042;DHT22;1026;51.460;7.252;2022-09-17T13:19:40;14.00;82.50
2042;DHT22;1026;51.460;7.252;2022-09-17T13:24:39;14.10;82.60
2042;DHT22;1026;51.460;7.252;2022-09-17T13:27:19;14.10;82.50
2042;DHT22;1026;51.460;7.252;2022-09-17T13:32:42;14.10;82.60
2042;DHT22;1026;51.460;7.252;2022-09-17T13:37:39;14.00;82.40
2042;DHT22;1026;51.460;7.252;2022-09-17T13:40:29;14.10;82.50
2042;DHT22;1026;51.460;7.252;2022-09-17T13:42:57;14.10;82.50
2042;DHT22;1026;51.460;7.252;2022-09-17T13:45:24;14.10;82.50
2042;DHT22;1026;51.460;7.252;2022-09-17T13:48:03;14.10;82.50
2042;DHT22;1026;51.460;7.252;2022-09-17T13:50:40;14.10;82.90
2042;DHT22;1026;51.460;7.252;2022-09-17T13:53:17;14.10;83.40
2042;DHT22;1026;51.460;7.252;2022-09-17T13:55:50;14.00;83.00
2042;DHT22;1026;51.460;7.252;2022-09-17T14:00:54;14.10;82.80
2042;DHT22;1026;51.460;7.252;2022-09-17T14:11:38;14.10;83.10
2042;DHT22;1026;51.460;7.252;2022-09-17T14:21:29;14.10;83.00
2042;DHT22;1026;51.460;7.252;2022-09-17T14:23:57;14.10;82.90
2042;DHT22;1026;51.460;7.252;2022-09-17T14:26:39;14.20;83.20
2042;DHT22;1026;51.460;7.252;2022-09-17T14:29:29;14.10;83.10
2042;DHT22;1026;51.460;7.252;2022-09-17T14:31:57;14.10;83.10
2042;DHT22;1026;51.460;7.252;2022-09-17T17:06:37;14.10;82.00
2042;DHT22;1026;51.460;7.252;2022-09-17T17:09:02;14.10;82.20
2042;DHT22;1026;51.460;7.252;2022-09-17T17:11:30;14.10;82.10
2042;DHT22;1026;51.460;7.252;2022-09-17T17:13:56;14.10;82.10
2042;DHT22;1026;51.460;7.252;2022-09-17T17:16:22;14.00;81.70
2042;DHT22;1026;51.460;7.252;2022-09-17T17:18:49;14.10;81.90
2042;DHT22;1026;51.460;7.252;2022-09-17T17:21:17;14.10;81.70
2042;DHT22;1026;51.460;7.252;2022-09-17T17:23:43;14.00;82.00
2042;DHT22;1026;51.460;7.252;2022-09-17T17:26:14;14.10;82.10
2042;DHT22;1026;51.460;7.252;2022-09-17T17:28:57;14.10;81.90
2042;DHT22;1026;51.460;7.252;2022-09-17T17:31:23;14.10;82.20
2042;DHT22;1026;51.460;7.252;2022-09-17T17:33:48;14.10;82.00
2042;DHT22;1026;51.460;7.252;2022-09-17T17:36:14;14.10;81.80
2042;DHT22;1026;51.460;7.252;2022-09-17T17:38:40;14.10;82.00
2042;DHT22;1026;51.460;7.252;2022-09-17T17:41:06;14.10;82.00
2042;DHT22;1026;51.460;7.252;2022-09-17T17:43:33;14.10;81.90
2042;DHT22;1026;51.460;7.252;2022-09-17T17:45:59;14.10;82.00
2042;DHT22;1026;51.460;7.252;2022-09-17T17:48:25;14.10;82.00
2042;DHT22;1026;51.460;7.252;2022-09-17T17:50:51;14.10;82.10
2042;DHT22;1026;51.460;7.252;2022-09-17T17:53:17;14.00;82.00
2042;DHT22;1026;51.460;7.252;2022-09-17T17:55:42;14.10;82.20
2042;DHT22;1026;51.460;7.252;2022-09-17T17:58:08;14.00;82.00
2042;DHT22;1026;51.460;7.252;2022-09-17T18:00:33;14.10;82.20
2042;DHT22;1026;51.460;7.252;2022-09-17T18:03:02;14.10;82.20
2042;DHT22;1026;51.460;7.252;2022-09-17T18:05:31;14.10;82.20
2042;DHT22;1026;51.460;7.252;2022-09-17T18:08:14;14.10;82.20
2042;DHT22;1026;51.460;7.252;2022-09-17T18:10:55;14.10;82.20
2042;DHT22;1026;51.460;7.252;2022-09-17T18:13:22;14.00;82.20
2042;DHT22;1026;51.460;7.252;2022-09-17T18:15:53;14.00;82.10
2042;DHT22;1026;51.460;7.252;2022-09-17T18:18:20;14.00;82.20
2042;DHT22;1026;51.460;7.252;2022-09-17T18:20:46;14.00;82.20
2042;DHT22;1026;51.460;7.252;2022-09-17T18:29:56;14.00;82.30
2042;DHT22;1026;51.460;7.252;2022-09-17T18:32:21;14.00;82.30
2042;DHT22;1026;51.460;7.252;2022-09-17T18:34:47;14.00;82.40
2042;DHT22;1026;51.460;7.252;2022-09-17T18:37:12;14.00;82.40
2042;DHT22;1026;51.460;7.252;2022-09-17T18:39:38;14.00;82.40
2042;DHT22;1026;51.460;7.252;2022-09-17T18:42:04;13.90;82.40
2042;DHT22;1026;51.460;7.252;2022-09-17T18:44:29;13.90;82.40
2042;DHT22;1026;51.460;7.252;2022-09-17T18:46:55;13.90;82.40
2042;DHT22;1026;51.460;7.252;2022-09-17T18:49:20;13.90;82.40
2042;DHT22;1026;51.460;7.252;2022-09-17T18:51:46;13.90;82.40
2042;DHT22;1026;51.460;7.252;2022-09-17T18:54:12;13.90;82.40
2042;DHT22;1026;51.460;7.252;2022-09-17T18:56:38;13.90;82.50
2042;DHT22;1026;51.460;7.252;2022-09-17T18:59:05;13.90;82.50
2042;DHT22;1026;51.460;7.252;2022-09-17T19:01:31;13.90;82.60
2042;DHT22;1026;51.460;7.252;2022-09-17T19:03:57;13.90;82.60
2042;DHT22;1026;51.460;7.252;2022-09-17T19:06:24;13.90;82.60
2042;DHT22;1026;51.460;7.252;2022-09-17T19:08:50;13.90;82.60
2042;DHT22;1026;51.460;7.252;2022-09-17T19:11:16;13.80;82.50
2042;DHT22;1026;51.460;7.252;2022-09-17T19:13:44;13.90;82.60
2042;DHT22;1026;51.460;7.252;2022-09-17T19:16:11;13.90;82.70
2042;DHT22;1026;51.460;7.252;2022-09-17T19:18:37;13.90;82.70
2042;DHT22;1026;51.460;7.252;2022-09-17T19:21:06;13.90;82.70
2042;DHT22;1026;51.460;7.252;2022-09-17T19:23:33;13.80;82.60
2042;DHT22;1026;51.460;7.252;2022-09-17T19:26:08;13.90;82.70
2042;DHT22;1026;51.460;7.252;2022-09-17T19:28:34;13.80;82.60
2042;DHT22;1026;51.460;7.252;2022-09-17T19:31:10;13.80;82.60
2042;DHT22;1026;51.460;7.252;2022-09-17T19:33:36;13.80;82.70
2042;DHT22;1026;51.460;7.252;2022-09-17T19:36:05;13.80;82.70
2042;DHT22;1026;51.460;7.252;2022-09-17T19:38:31;13.80;82.70
2042;DHT22;1026;51.460;7.252;2022-09-17T19:41:00;13.80;82.70
2042;DHT22;1026;51.460;7.252;2022-09-17T19:43:27;13.80;82.70
2042;DHT22;1026;51.460;7.252;2022-09-17T19:48:28;13.80;82.60
2042;DHT22;1026;51.460;7.252;2022-09-17T19:50:54;13.80;82.60
2042;DHT22;1026;51.460;7.252;2022-09-17T19:53:20;13.80;82.60
2042;DHT22;1026;51.460;7.252;2022-09-17T19:55:46;13.80;82.60
2042;DHT22;1026;51.460;7.252;2022-09-17T19:58:12;13.80;82.50
2042;DHT22;1026;51.460;7.252;2022-09-17T20:00:38;13.80;82.60
2042;DHT22;1026;51.460;7.252;2022-09-17T20:03:04;13.80;82.50
2042;DHT22;1026;51.460;7.252;2022-09-17T20:05:30;13.80;82.50
2042;DHT22;1026;51.460;7.252;2022-09-17T20:07:57;13.80;82.50
2042;DHT22;1026;51.460;7.252;2022-09-17T20:10:22;13.80;82.50
2042;DHT22;1026;51.460;7.252;2022-09-17T20:12:48;13.70;82.50
2042;DHT22;1026;51.460;7.252;2022-09-17T20:15:14;13.80;82.60
2042;DHT22;1026;51.460;7.252;2022-09-17T20:17:40;13.80;82.60
2042;DHT22;1026;51.460;7.252;2022-09-17T20:20:06;13.80;82.60
2042;DHT22;1026;51.460;7.252;2022-09-17T20:22:32;13.70;82.60
2042;DHT22;1026;51.460;7.252;2022-09-17T20:24:58;13.70;82.50
2042;DHT22;1026;51.460;7.252;2022-09-17T20:27:23;13.70;82.60
2042;DHT22;1026;51.460;7.252;2022-09-17T20:29:49;13.70;82.60
2042;DHT22;1026;51.460;7.252;2022-09-17T20:32:15;13.70;82.60
2042;DHT22;1026;51.460;7.252;2022-09-17T20:34:40;13.70;82.60
2042;DHT22;1026;51.460;7.252;2022-09-17T20:37:06;13.70;82.70
2042;DHT22;1026;51.460;7.252;2022-09-17T20:39:32;13.70;82.70
2042;DHT22;1026;51.460;7.252;2022-09-17T20:41:58;13.60;82.70
2042;DHT22;1026;51.460;7.252;2022-09-17T20:44:23;13.70;82.80
2042;DHT22;1026;51.460;7.252;2022-09-17T20:46:49;13.70;82.70
2042;DHT22;1026;51.460;7.252;2022-09-17T20:49:15;13.70;82.80
2042;DHT22;1026;51.460;7.252;2022-09-17T20:51:40;13.70;82.80
2042;DHT22;1026;51.460;7.252;2022-09-17T20:54:06;13.70;82.80
2042;DHT22;1026;51.460;7.252;2022-09-17T20:56:34;13.70;82.80
2042;DHT22;1026;51.460;7.252;2022-09-17T20:59:02;13.70;82.80
2042;DHT22;1026;51.460;7.252;2022-09-17T21:01:34;13.70;82.80
2042;DHT22;1026;51.460;7.252;2022-09-17T21:04:03;13.70;82.90
2042;DHT22;1026;51.460;7.252;2022-09-17T21:06:31;13.70;82.80
2042;DHT22;1026;51.460;7.252;2022-09-17T21:08:57;13.70;82.90
2042;DHT22;1026;51.460;7.252;2022-09-17T21:11:24;13.70;82.90
2042;DHT22;1026;51.460;7.252;2022-09-17T21:13:51;13.60;82.80
2042;DHT22;1026;51.460;7.252;2022-09-17T21:16:17;13.60;83.50
2042;DHT22;1026;51.460;7.252;2022-09-17T21:18:43;13.60;82.80
2042;DHT22;1026;51.460;7.252;2022-09-17T21:21:10;13.60;82.80
2042;DHT22;1026;51.460;7.252;2022-09-17T21:23:37;13.60;82.80
2042;DHT22;1026;51.460;7.252;2022-09-17T21:28:31;13.60;82.80
2042;DHT22;1026;51.460;7.252;2022-09-17T21:31:08;13.60;82.80
2042;DHT22;1026;51.460;7.252;2022-09-17T21:33:34;13.60;82.90
2042;DHT22;1026;51.460;7.252;2022-09-17T21:36:04;13.60;82.80
2042;DHT22;1026;51.460;7.252;2022-09-17T21:38:30;13.60;82.90
2042;DHT22;1026;51.460;7.252;2022-09-17T21:40:56;13.60;82.90
2042;DHT22;1026;51.460;7.252;2022-09-17T21:43:23;13.60;82.90
2042;DHT22;1026;51.460;7.252;2022-09-17T21:45:57;13.50;82.90
2042;DHT22;1026;51.460;7.252;2022-09-17T21:48:24;13.60;83.00
2042;DHT22;1026;51.460;7.252;2022-09-17T21:50:49;13.60;83.00
2042;DHT22;1026;51.460;7.252;2022-09-17T21:53:16;13.60;82.90